Time;durP1;ratioP1;P1;durP2;ratioP2;P2;SDS_P1;SDS_P2;PMS_P1;PMS_P2;Temp;Humidity;BMP_temperature;BMP_pressure;BME280_temperature;BME280_humidity;BME280_pressure;Samples;Min_cycle;Max_cycle;Signal;HPM_P1;HPM_P2
2024/03/12 00:01:20;;;;;;;55.08;20.17;;;8.30;99.90;;;;;;5071825;28;20370;-42
2024/03/12 00:03:46;;;;;;;56.28;20.83;;;8.30;99.90;;;;;;5073357;28;20034;-37
2024/03/12 00:06:12;;;;;;;53.10;22.13;;;8.30;99.90;;;;;;5073296;28;20028;-37
2024/03/12 00:08:39;;;;;;;62.25;20.80;;;8.30;99.90;;;;;;5072986;28;20109;-37
2024/03/12 00:11:05;;;;;;;50.65;20.48;;;8.30;99.90;;;;;;5073210;28;20036;-36
2024/03/12 00:13:31;;;;;;;49.40;20.70;;;8.30;99.90;;;;;;5073227;28;20020;-37
2024/03/12 00:16:00;;;;;;;50.60;20.35;;;8.30;99.90;;;;;;5071672;28;20029;-37
2024/03/12 00:18:26;;;;;;;57.88;21.90;;;8.40;99.90;;;;;;5073232;28;20024;-37
2024/03/12 00:20:53;;;;;;;59.22;21.67;;;8.30;99.90;;;;;;5073055;28;20504;-37
2024/03/12 00:23:19;;;;;;;44.73;15.37;;;8.30;99.90;;;;;;5073029;28;20032;-38
2024/03/12 00:25:45;;;;;;;69.95;21.40;;;8.30;99.90;;;;;;5072984;28;20032;-37
2024/03/12 00:28:11;;;;;;;58.90;22.17;;;8.30;99.90;;;;;;5072917;28;20048;-38
2024/03/12 00:30:40;;;;;;;69.13;22.58;;;8.30;99.90;;;;;;5068190;28;20106;-38
2024/03/12 00:33:07;;;;;;;54.83;22.77;;;8.30;99.90;;;;;;5072244;28;20032;-37
2024/03/12 00:35:35;;;;;;;61.25;22.33;;;8.30;99.90;;;;;;5072528;28;20082;-47
2024/03/12 00:38:04;;;;;;;64.75;21.20;;;8.30;99.90;;;;;;5071518;28;20385;-38
2024/03/12 00:40:33;;;;;;;53.17;20.23;;;8.40;99.90;;;;;;5073008;28;20519;-37
2024/03/12 00:43:00;;;;;;;51.88;21.00;;;8.40;99.90;;;;;;5072768;28;20508;-37
2024/03/12 00:45:29;;;;;;;56.90;20.30;;;8.50;99.90;;;;;;5072688;28;20035;-53
2024/03/12 00:47:56;;;;;;;52.65;22.10;;;8.40;99.90;;;;;;5071548;28;20038;-53
2024/03/12 00:50:22;;;;;;;57.80;20.20;;;8.40;99.90;;;;;;5072736;28;20385;-53
2024/03/12 00:52:53;;;;;;;55.40;20.92;;;8.30;99.90;;;;;;5072318;28;20024;-54
2024/03/12 00:55:23;;;;;;;63.90;21.20;;;8.30;99.90;;;;;;5071189;28;20070;-53
2024/03/12 00:57:50;;;;;;;53.97;22.00;;;8.30;99.90;;;;;;5072269;28;20103;-51
2024/03/12 01:00:17;;;;;;;59.25;21.55;;;8.20;99.90;;;;;;5062295;28;20120;-51
2024/03/12 01:02:49;;;;;;;58.92;21.77;;;8.20;99.90;;;;;;5051359;28;20032;-53
2024/03/12 01:05:21;;;;;;;57.17;21.90;;;8.20;99.90;;;;;;5056652;28;20085;-39
2024/03/12 01:07:47;;;;;;;52.65;21.00;;;8.20;99.90;;;;;;5072249;28;20081;-41
2024/03/12 01:10:14;;;;;;;68.38;22.45;;;8.30;99.90;;;;;;5071954;28;20048;-72
2024/03/12 01:12:40;;;;;;;66.18;22.58;;;8.30;99.90;;;;;;5072340;28;20492;-56
2024/03/12 01:15:09;;;;;;;58.65;21.50;;;8.30;99.90;;;;;;5072211;28;20103;-53
2024/03/12 01:17:37;;;;;;;65.95;21.77;;;8.20;99.90;;;;;;5071232;28;20504;-52
2024/03/12 01:20:08;;;;;;;58.97;22.73;;;8.20;99.90;;;;;;5072072;28;20032;-54
2024/03/12 01:22:34;;;;;;;81.35;23.92;;;8.10;99.90;;;;;;5071958;28;20063;-53
2024/03/12 01:25:01;;;;;;;61.30;22.25;;;8.20;99.90;;;;;;5072235;28;20060;-54
2024/03/12 01:27:26;;;;;;;63.53;23.52;;;8.10;99.90;;;;;;5070631;28;20031;-54
2024/03/12 01:29:52;;;;;;;63.22;22.98;;;8.20;99.90;;;;;;5072049;28;20512;-39
2024/03/12 01:32:20;;;;;;;59.72;19.67;;;8.20;99.90;;;;;;5070963;28;20053;-55
2024/03/12 01:34:46;;;;;;;55.35;20.95;;;8.20;99.90;;;;;;5070871;28;20033;-38
2024/03/12 01:37:15;;;;;;;73.25;21.58;;;8.10;99.90;;;;;;5072167;28;20393;-38
2024/03/12 01:39:41;;;;;;;64.22;19.70;;;8.10;99.90;;;;;;5072178;28;20021;-40
2024/03/12 01:42:07;;;;;;;63.50;20.52;;;8.10;99.90;;;;;;5053552;28;20533;-39
2024/03/12 01:44:37;;;;;;;74.75;21.95;;;8.20;99.90;;;;;;5068687;28;20075;-53
2024/03/12 01:47:04;;;;;;;57.55;20.25;;;8.10;99.90;;;;;;5071981;28;20043;-49
2024/03/12 01:49:30;;;;;;;86.05;19.95;;;8.10;99.90;;;;;;5071797;28;20032;-52
2024/03/12 01:51:56;;;;;;;72.75;20.40;;;8.20;99.90;;;;;;5071900;28;20037;-54
2024/03/12 01:54:21;;;;;;;63.60;19.38;;;8.20;99.90;;;;;;5071857;28;20024;-39
2024/03/12 01:56:47;;;;;;;63.92;21.58;;;8.20;99.90;;;;;;5071752;28;20021;-38
2024/03/12 01:59:15;;;;;;;63.33;20.42;;;8.10;99.90;;;;;;5071677;28;20206;-38
2024/03/12 02:01:41;;;;;;;61.80;19.58;;;8.10;99.90;;;;;;5071798;28;20473;-39
2024/03/12 02:04:09;;;;;;;66.45;19.88;;;8.10;99.90;;;;;;5071820;28;20465;-38
2024/03/12 02:06:35;;;;;;;60.30;19.27;;;8.10;99.90;;;;;;5071233;28;20052;-38
2024/03/12 02:09:03;;;;;;;54.08;20.95;;;8.10;99.90;;;;;;5073800;28;20048;-38
2024/03/12 02:11:28;;;;;;;;;;;8.00;99.90;;;;;;5076046;28;20040;-60
2024/03/12 02:13:54;;;;;;;61.80;19.08;;;8.10;99.90;;;;;;5074264;28;19908;-53
2024/03/12 02:16:20;;;;;;;52.67;17.67;;;8.10;99.90;;;;;;5075510;28;20036;-52
2024/03/12 02:18:46;;;;;;;53.97;16.88;;;8.10;99.90;;;;;;5075225;28;20052;-63
2024/03/12 02:21:12;;;;;;;60.70;17.52;;;8.10;99.90;;;;;;5075338;28;20469;-52
2024/03/12 02:23:42;;;;;;;56.63;18.95;;;8.00;99.90;;;;;;5075260;28;20028;-51
2024/03/12 02:26:09;;;;;;;64.78;19.35;;;8.00;99.90;;;;;;5075459;28;20028;-38
2024/03/12 02:28:38;;;;;;;68.43;19.52;;;8.10;99.90;;;;;;5075123;28;20035;-37
2024/03/12 02:31:05;;;;;;;50.47;18.83;;;8.10;99.90;;;;;;5075001;28;20488;-37
2024/03/12 02:33:32;;;;;;;54.17;20.63;;;8.10;99.90;;;;;;5075356;28;20503;-52
2024/03/12 02:35:58;;;;;;;60.72;18.38;;;8.10;99.90;;;;;;5070079;28;20029;-49
2024/03/12 02:38:24;;;;;;;61.95;19.48;;;8.10;99.90;;;;;;5055298;28;20477;-39
2024/03/12 02:40:50;;;;;;;56.75;16.90;;;8.10;99.90;;;;;;5055076;28;20100;-38
2024/03/12 02:43:16;;;;;;;65.10;19.10;;;8.10;99.90;;;;;;5055015;28;20496;-38
2024/03/12 02:45:42;;;;;;;50.53;18.42;;;8.10;99.90;;;;;;5053990;28;20029;-39
2024/03/12 02:48:12;;;;;;;49.40;18.10;;;8.10;99.90;;;;;;5066536;28;20542;-39
2024/03/12 02:50:41;;;;;;;52.85;18.45;;;8.10;99.90;;;;;;5074478;28;20028;-42
2024/03/12 02:53:07;;;;;;;53.72;19.55;;;8.00;99.90;;;;;;5074813;28;20032;-39
2024/03/12 02:55:34;;;;;;;63.28;21.17;;;8.10;99.90;;;;;;5074754;28;20051;-40
2024/03/12 02:58:00;;;;;;;85.47;21.97;;;8.10;99.90;;;;;;5074725;28;20032;-44
2024/03/12 03:00:26;;;;;;;63.88;20.13;;;8.10;99.90;;;;;;5074472;28;20469;-45
2024/03/12 03:02:54;;;;;;;67.38;20.63;;;8.10;99.90;;;;;;5074664;28;20035;-43
2024/03/12 03:05:20;;;;;;;;;;;8.00;99.90;;;;;;5065127;28;20057;-43
2024/03/12 03:07:48;;;;;;;65.53;18.73;;;8.00;99.90;;;;;;5056473;28;19916;-40
2024/03/12 03:10:14;;;;;;;73.50;21.70;;;8.00;99.90;;;;;;5074125;28;20045;-39
2024/03/12 03:12:41;;;;;;;51.58;19.35;;;7.90;99.90;;;;;;5074702;28;20020;-60
2024/03/12 03:15:11;;;;;;;66.28;19.92;;;7.90;99.90;;;;;;5074356;28;20017;-39
2024/03/12 03:17:40;;;;;;;61.83;19.88;;;7.90;99.90;;;;;;5074570;28;20470;-45
2024/03/12 03:20:11;;;;;;;58.67;18.17;;;7.90;99.90;;;;;;5074056;28;20496;-41
2024/03/12 03:22:37;;;;;;;71.88;18.67;;;7.90;99.90;;;;;;5074536;28;20048;-39
2024/03/12 03:25:03;;;;;;;44.65;16.92;;;7.90;99.90;;;;;;5074405;28;20069;-40
2024/03/12 03:27:28;;;;;;;65.72;18.05;;;7.90;99.90;;;;;;5089490;28;20028;-39
2024/03/12 03:29:59;;;;;;;47.42;17.27;;;7.90;99.90;;;;;;5078522;28;20025;-38
2024/03/12 03:32:25;;;;;;;61.78;17.15;;;7.90;99.90;;;;;;5072706;28;20020;-40
2024/03/12 03:34:52;;;;;;;51.28;17.48;;;8.00;99.90;;;;;;5072631;28;20017;-39
2024/03/12 03:37:20;;;;;;;57.05;17.70;;;8.00;99.90;;;;;;5073904;28;20481;-39
2024/03/12 03:39:46;;;;;;;;;;;8.10;99.90;;;;;;5074132;28;20507;-40
2024/03/12 03:42:12;;;;;;;44.40;14.23;;;8.10;99.90;;;;;;5073898;28;19912;-40
2024/03/12 03:44:37;;;;;;;50.30;15.20;;;8.10;99.90;;;;;;5073876;28;20035;-39
2024/03/12 03:47:04;;;;;;;44.92;15.48;;;8.20;99.90;;;;;;5073640;28;20107;-39
2024/03/12 03:49:30;;;;;;;43.88;14.82;;;8.10;99.90;;;;;;5073524;28;20047;-39
2024/03/12 03:51:55;;;;;;;41.33;14.18;;;8.10;99.90;;;;;;5073601;28;20020;-40
2024/03/12 03:54:21;;;;;;;48.53;15.13;;;8.10;99.90;;;;;;5073561;28;20024;-40
2024/03/12 03:56:47;;;;;;;54.75;17.70;;;8.10;99.90;;;;;;5073405;28;20132;-42
2024/03/12 03:59:15;;;;;;;50.03;16.27;;;8.10;99.90;;;;;;5071825;28;20028;-39
2024/03/12 04:01:41;;;;;;;;;;;8.10;99.90;;;;;;5053888;28;20029;-40
2024/03/12 04:04:15;;;;;;;57.65;15.57;;;8.00;99.90;;;;;;5053349;28;20387;-38
2024/03/12 04:06:43;;;;;;;48.20;16.13;;;8.00;99.90;;;;;;5053404;28;20040;-44
2024/03/12 04:09:09;;;;;;;47.85;15.35;;;8.00;99.90;;;;;;5053426;28;20045;-38
2024/03/12 04:11:35;;;;;;;45.33;16.10;;;8.00;99.90;;;;;;5053243;28;20365;-38
2024/03/12 04:14:02;;;;;;;49.03;15.85;;;7.90;99.90;;;;;;5072090;28;20027;-43
2024/03/12 04:16:30;;;;;;;61.40;16.55;;;7.90;99.90;;;;;;5072959;28;20435;-41
2024/03/12 04:18:59;;;;;;;47.90;15.25;;;7.90;99.90;;;;;;5073087;28;20368;-67
2024/03/12 04:21:26;;;;;;;58.95;17.73;;;7.90;99.90;;;;;;5072997;28;20511;-39
2024/03/12 04:23:52;;;;;;;49.40;17.20;;;7.80;99.90;;;;;;5073064;28;20077;-38
2024/03/12 04:26:19;;;;;;;57.80;15.73;;;7.80;99.90;;;;;;5072861;28;20485;-38
2024/03/12 04:28:45;;;;;;;55.80;16.25;;;7.90;99.90;;;;;;5072680;28;20132;-39
2024/03/12 04:31:12;;;;;;;63.13;15.77;;;7.90;99.90;;;;;;5071672;28;20493;-40
2024/03/12 04:33:38;;;;;;;66.55;15.32;;;7.90;99.90;;;;;;5072776;28;20024;-53
2024/03/12 04:36:06;;;;;;;55.17;14.35;;;7.90;99.90;;;;;;5072800;28;20286;-40
2024/03/12 04:38:32;;;;;;;51.30;15.25;;;7.90;99.90;;;;;;5073114;28;20024;-39
2024/03/12 04:40:59;;;;;;;50.80;15.85;;;7.90;99.90;;;;;;5072661;28;20028;-38
2024/03/12 04:43:24;;;;;;;50.55;14.65;;;7.90;99.90;;;;;;5072659;28;20280;-56
2024/03/12 04:45:50;;;;;;;46.38;14.05;;;7.90;99.90;;;;;;5072474;28;20029;-39
2024/03/12 04:48:16;;;;;;;45.65;14.68;;;7.90;99.90;;;;;;5052603;28;20436;-38
2024/03/12 04:50:41;;;;;;;58.08;15.10;;;7.90;99.90;;;;;;5062160;28;20021;-38
2024/03/12 04:53:07;;;;;;;51.53;14.05;;;7.90;99.90;;;;;;5072555;28;20070;-40
2024/03/12 04:55:37;;;;;;;50.42;14.25;;;8.00;99.90;;;;;;5072502;28;20024;-38
2024/03/12 04:58:05;;;;;;;43.85;13.27;;;8.00;99.90;;;;;;5072543;28;20100;-37
2024/03/12 05:00:31;;;;;;;47.88;13.70;;;8.00;99.90;;;;;;5072377;28;20495;-38
2024/03/12 05:02:56;;;;;;;42.58;13.70;;;7.90;99.90;;;;;;5070883;28;20107;-38
2024/03/12 05:05:23;;;;;;;40.60;13.98;;;7.90;99.90;;;;;;5071147;28;20061;-38
2024/03/12 05:07:50;;;;;;;49.33;14.85;;;7.90;99.90;;;;;;5072161;28;20101;-41
2024/03/12 05:10:16;;;;;;;44.25;15.32;;;7.90;99.90;;;;;;5072046;28;20053;-38
2024/03/12 05:12:43;;;;;;;42.53;13.13;;;7.80;99.90;;;;;;5072302;28;20027;-39
2024/03/12 05:15:09;;;;;;;42.75;14.73;;;7.90;99.90;;;;;;5070879;28;20039;-43
2024/03/12 05:17:42;;;;;;;46.08;14.40;;;7.90;99.90;;;;;;5072190;28;20024;-39
2024/03/12 05:20:14;;;;;;;51.97;14.50;;;7.90;99.90;;;;;;5071221;28;20033;-39
2024/03/12 05:22:40;;;;;;;39.67;14.25;;;7.90;99.90;;;;;;5072304;28;20028;-39
2024/03/12 05:25:18;;;;;;;42.35;14.18;;;7.90;99.90;;;;;;5072019;28;20110;-39
2024/03/12 05:27:45;;;;;;;46.33;13.35;;;7.90;99.90;;;;;;5070778;28;20085;-49
2024/03/12 05:30:14;;;;;;;53.53;14.38;;;7.90;99.90;;;;;;5071846;28;20035;-50
2024/03/12 05:32:43;;;;;;;45.42;14.43;;;7.90;99.90;;;;;;5072126;28;20579;-50
2024/03/12 05:35:22;;;;;;;54.80;14.93;;;7.90;99.90;;;;;;5072032;28;20028;-47
2024/03/12 05:38:08;;;;;;;45.42;14.88;;;7.90;99.90;;;;;;5071858;28;20021;-51
2024/03/12 05:40:43;;;;;;;42.13;13.00;;;7.90;99.90;;;;;;5070817;28;20028;-50
2024/03/12 05:49:02;;;;;;;51.47;14.18;;;7.90;99.90;;;;;;5076442;28;20078;-53
2024/03/12 05:51:28;;;;;;;42.13;13.30;;;7.90;99.90;;;;;;5075858;28;20032;-52
2024/03/12 05:53:53;;;;;;;40.50;12.10;;;7.90;99.90;;;;;;5075680;28;20020;-51
2024/03/12 05:56:20;;;;;;;35.60;12.73;;;7.80;99.90;;;;;;5075751;28;20535;-52
2024/03/12 05:58:46;;;;;;;34.03;11.63;;;7.90;99.90;;;;;;5075697;28;20445;-51
2024/03/12 06:01:11;;;;;;;41.50;13.07;;;7.90;99.90;;;;;;5074341;28;20021;-52
2024/03/12 06:03:37;;;;;;;37.10;11.02;;;7.90;99.90;;;;;;5075664;28;20047;-58
2024/03/12 06:06:10;;;;;;;43.03;13.40;;;7.90;99.90;;;;;;5075697;28;20024;-52
2024/03/12 06:08:35;;;;;;;47.38;14.18;;;7.90;99.90;;;;;;5075375;28;20020;-53
2024/03/12 06:11:01;;;;;;;48.22;14.07;;;7.90;99.90;;;;;;5075362;28;20029;-53
2024/03/12 06:13:27;;;;;;;41.95;13.02;;;7.90;99.90;;;;;;5075522;28;20027;-50
2024/03/12 06:15:53;;;;;;;37.83;12.35;;;7.90;99.90;;;;;;5075277;28;20025;-53
2024/03/12 06:18:19;;;;;;;42.65;12.73;;;7.90;99.90;;;;;;5075436;28;20546;-47
2024/03/12 06:20:49;;;;;;;39.47;13.35;;;7.90;99.90;;;;;;5074045;28;20029;-51
2024/03/12 06:23:15;;;;;;;29.95;11.73;;;7.90;99.90;;;;;;5075320;28;20502;-53
2024/03/12 06:25:41;;;;;;;40.15;11.85;;;7.90;99.90;;;;;;5075098;28;20017;-52
2024/03/12 06:28:07;;;;;;;36.72;12.05;;;7.90;99.90;;;;;;5063886;28;20039;-53
2024/03/12 06:30:35;;;;;;;46.22;11.55;;;7.90;99.90;;;;;;5075322;28;20032;-54
2024/03/12 06:33:04;;;;;;;38.67;13.38;;;8.00;99.90;;;;;;5075072;28;20057;-53
2024/03/12 06:35:30;;;;;;;33.80;11.68;;;8.00;99.90;;;;;;5074902;28;20075;-53
2024/03/12 06:37:58;;;;;;;38.30;11.35;;;8.00;99.90;;;;;;5075092;28;20017;-54
2024/03/12 06:40:25;;;;;;;;;;;8.00;99.90;;;;;;5075388;28;20476;-53
2024/03/12 06:42:51;;;;;;;36.50;10.68;;;8.00;99.90;;;;;;5074994;28;19912;-50
2024/03/12 06:45:17;;;;;;;42.03;12.13;;;8.00;99.90;;;;;;5075003;28;20499;-54
2024/03/12 06:47:46;;;;;;;48.10;12.32;;;8.00;99.90;;;;;;5073494;28;20024;-53
2024/03/12 06:50:12;;;;;;;35.78;11.15;;;8.00;99.90;;;;;;5074756;28;20473;-54
2024/03/12 06:52:38;;;;;;;29.25;11.95;;;8.00;99.90;;;;;;5074759;28;20078;-53
2024/03/12 06:55:12;;;;;;;46.33;12.30;;;8.10;99.90;;;;;;5073964;28;20044;-54
2024/03/12 06:57:47;;;;;;;39.22;10.52;;;8.00;99.90;;;;;;5074891;28;20459;-54
2024/03/12 07:00:14;;;;;;;34.22;11.90;;;8.00;99.90;;;;;;5074946;28;20039;-53
2024/03/12 07:02:40;;;;;;;39.92;11.02;;;8.10;99.90;;;;;;5074347;28;20489;-52
2024/03/12 07:05:09;;;;;;;33.90;10.70;;;8.10;99.90;;;;;;5074444;28;20032;-54
2024/03/12 07:07:35;;;;;;;33.65;10.40;;;8.10;99.90;;;;;;5074270;28;20020;-54
2024/03/12 07:10:03;;;;;;;29.38;11.00;;;8.20;99.90;;;;;;5074214;28;20044;-54
2024/03/12 07:12:33;;;;;;;36.65;10.45;;;8.30;99.90;;;;;;5073105;28;20025;-67
2024/03/12 07:14:59;;;;;;;36.40;12.02;;;8.30;99.90;;;;;;5074281;28;20017;-54
2024/03/12 07:17:24;;;;;;;34.33;11.60;;;8.30;99.90;;;;;;5074229;28;20426;-55
2024/03/12 07:19:50;;;;;;;28.73;9.57;;;8.30;99.90;;;;;;5072929;28;20116;-51
2024/03/12 07:22:18;;;;;;;33.63;9.70;;;8.30;99.90;;;;;;5073029;28;20024;-54
2024/03/12 07:24:43;;;;;;;36.80;10.98;;;8.30;99.90;;;;;;5073798;28;20468;-52
2024/03/12 07:27:12;;;;;;;25.67;9.77;;;8.30;99.90;;;;;;5074013;28;20103;-54
2024/03/12 07:29:38;;;;;;;30.45;10.63;;;8.30;99.90;;;;;;5073950;28;20027;-53
2024/03/12 07:32:05;;;;;;;36.47;10.57;;;8.30;99.90;;;;;;5073983;28;20025;-39
2024/03/12 07:34:31;;;;;;;30.13;10.93;;;8.30;99.90;;;;;;5074031;28;20342;-40
2024/03/12 07:36:58;;;;;;;35.55;9.73;;;8.40;99.90;;;;;;5073671;28;20070;-39
2024/03/12 07:39:36;;;;;;;38.97;10.88;;;8.30;99.90;;;;;;5074088;28;20457;-39
2024/03/12 07:42:09;;;;;;;42.92;10.40;;;8.30;99.90;;;;;;5053738;28;20029;-40
2024/03/12 07:44:38;;;;;;;22.02;10.18;;;8.30;99.90;;;;;;5053744;28;20051;-39
2024/03/12 07:47:04;;;;;;;28.05;9.32;;;8.30;99.90;;;;;;5052410;28;20126;-40
2024/03/12 07:49:36;;;;;;;32.40;10.75;;;8.30;99.90;;;;;;5052287;28;20126;-41
2024/03/12 07:52:02;;;;;;;27.70;10.85;;;8.20;99.90;;;;;;5053631;28;20025;-41
2024/03/12 07:54:29;;;;;;;21.10;8.73;;;8.30;99.90;;;;;;5067878;28;20032;-40
2024/03/12 07:56:55;;;;;;;42.17;10.57;;;8.30;99.90;;;;;;5073609;28;20540;-39
2024/03/12 07:59:22;;;;;;;24.42;10.02;;;8.30;99.90;;;;;;5073506;28;20021;-44
2024/03/12 08:01:57;;;;;;;29.98;8.73;;;8.30;99.90;;;;;;5073423;28;20016;-39
2024/03/12 08:04:25;;;;;;;25.52;9.68;;;8.30;99.90;;;;;;5073350;28;20599;-39
2024/03/12 08:06:51;;;;;;;29.25;9.35;;;8.30;99.90;;;;;;5072325;28;20024;-54
2024/03/12 08:09:18;;;;;;;31.40;9.88;;;8.40;99.90;;;;;;5073269;28;20484;-52
2024/03/12 08:11:47;;;;;;;38.20;11.60;;;8.50;99.90;;;;;;5073291;28;20032;-55
2024/03/12 08:14:13;;;;;;;29.75;9.50;;;8.50;99.90;;;;;;5073039;28;20024;-54
2024/03/12 08:16:40;;;;;;;22.80;9.90;;;8.60;99.90;;;;;;5073328;28;20032;-54
2024/03/12 08:19:06;;;;;;;22.30;9.18;;;8.60;99.90;;;;;;5073276;28;20027;-54
2024/03/12 08:21:32;;;;;;;24.85;9.00;;;8.60;99.90;;;;;;5073101;28;20028;-52
2024/03/12 08:23:58;;;;;;;24.45;9.38;;;8.70;99.90;;;;;;5071991;28;20032;-54
2024/03/12 08:26:28;;;;;;;27.00;9.23;;;8.70;99.90;;;;;;5071480;28;20028;-52
2024/03/12 08:28:57;;;;;;;27.38;8.93;;;8.70;99.90;;;;;;5072666;28;20032;-66
2024/03/12 08:31:29;;;;;;;22.98;8.77;;;8.70;99.90;;;;;;5072605;28;20035;-54
2024/03/12 08:33:55;;;;;;;35.05;9.45;;;8.70;99.90;;;;;;5072832;28;20098;-55
2024/03/12 08:36:24;;;;;;;24.92;9.23;;;8.70;99.90;;;;;;5072733;28;20016;-54
2024/03/12 08:38:50;;;;;;;24.08;8.40;;;8.70;99.90;;;;;;5071520;28;20066;-54
2024/03/12 08:41:16;;;;;;;30.77;10.15;;;8.70;99.90;;;;;;5072901;28;20507;-54
2024/03/12 08:43:42;;;;;;;23.05;9.48;;;8.70;99.90;;;;;;5072644;28;20056;-54
2024/03/12 08:46:08;;;;;;;24.67;10.02;;;8.70;99.90;;;;;;5059725;28;20025;-54
2024/03/12 08:48:34;;;;;;;34.08;11.55;;;8.70;99.90;;;;;;5061334;28;20126;-62
2024/03/12 08:51:02;;;;;;;25.27;8.82;;;8.70;99.90;;;;;;5072707;28;20112;-52
2024/03/12 08:53:29;;;;;;;35.20;9.60;;;8.80;99.90;;;;;;5072553;28;20052;-54
2024/03/12 08:55:57;;;;;;;21.33;9.47;;;8.80;99.90;;;;;;5072730;28;20402;-39
2024/03/12 08:58:23;;;;;;;20.55;9.38;;;8.90;99.90;;;;;;5072421;28;20027;-39
2024/03/12 09:00:49;;;;;;;26.85;10.10;;;8.90;99.90;;;;;;5072314;28;20473;-39
2024/03/12 09:03:15;;;;;;;25.48;10.13;;;8.90;99.90;;;;;;5072570;28;20021;-44
2024/03/12 09:05:41;;;;;;;27.23;10.95;;;8.90;99.90;;;;;;5072208;28;20485;-41
2024/03/12 09:08:06;;;;;;;29.90;10.23;;;8.80;99.90;;;;;;5072280;28;20033;-39
2024/03/12 09:10:33;;;;;;;26.25;9.30;;;8.80;99.90;;;;;;5072099;28;20603;-39
2024/03/12 09:13:00;;;;;;;29.15;10.68;;;8.70;99.90;;;;;;5072220;28;20025;-38
2024/03/12 09:15:27;;;;;;;24.02;8.98;;;8.70;99.90;;;;;;5072329;28;20142;-39
2024/03/12 09:17:54;;;;;;;25.23;10.02;;;8.70;99.90;;;;;;5071522;28;20060;-41
2024/03/12 09:20:21;;;;;;;26.10;8.57;;;8.70;99.90;;;;;;5072374;28;20020;-37
2024/03/12 09:22:47;;;;;;;25.25;9.73;;;8.70;99.90;;;;;;5071842;28;20100;-38
2024/03/12 09:25:14;;;;;;;39.15;11.77;;;8.80;99.90;;;;;;5072084;28;20533;-39
2024/03/12 09:27:39;;;;;;;22.70;9.68;;;8.90;99.90;;;;;;5072018;28;20457;-38
2024/03/12 09:30:07;;;;;;;26.85;10.52;;;9.00;99.90;;;;;;5071993;28;20074;-42
2024/03/12 09:32:34;;;;;;;26.20;10.15;;;9.10;99.90;;;;;;5072043;28;20031;-46
2024/03/12 09:35:02;;;;;;;35.60;11.10;;;9.20;99.90;;;;;;5072186;28;20075;-38
2024/03/12 09:37:29;;;;;;;36.33;10.25;;;9.20;99.90;;;;;;5071964;28;20032;-56
2024/03/12 09:39:54;;;;;;;27.40;9.93;;;9.20;99.90;;;;;;5072139;28;20473;-52
2024/03/12 09:42:23;;;;;;;33.13;10.75;;;9.30;99.90;;;;;;5072248;28;20032;-53
2024/03/12 09:44:51;;;;;;;25.48;10.52;;;9.40;99.90;;;;;;5072132;28;20522;-52
2024/03/12 09:47:18;;;;;;;26.20;9.90;;;9.40;99.90;;;;;;5070625;28;20021;-54
2024/03/12 09:49:44;;;;;;;26.95;11.02;;;9.50;99.90;;;;;;5070048;28;20401;-48
2024/03/12 09:52:11;;;;;;;24.88;10.55;;;9.60;99.90;;;;;;5070568;28;20029;-53
2024/03/12 09:54:38;;;;;;;27.88;11.52;;;9.60;99.90;;;;;;5072144;28;20024;-52
2024/03/12 09:57:07;;;;;;;20.85;9.60;;;9.70;99.90;;;;;;5071724;28;20531;-49
2024/03/12 09:59:33;;;;;;;22.63;10.75;;;9.80;99.90;;;;;;5071715;28;20017;-52
2024/03/12 10:02:01;;;;;;;24.30;11.00;;;9.90;99.90;;;;;;5071666;28;20025;-40
2024/03/12 10:04:30;;;;;;;25.08;10.60;;;9.90;99.90;;;;;;5070485;28;20726;-38
2024/03/12 10:06:58;;;;;;;25.90;10.85;;;10.00;99.90;;;;;;5071629;28;20485;-38
2024/03/12 10:09:27;;;;;;;25.98;10.68;;;10.00;99.90;;;;;;5069999;28;20051;-42
2024/03/12 10:11:54;;;;;;;31.13;10.93;;;10.20;99.90;;;;;;5071780;28;20016;-40
2024/03/12 10:14:22;;;;;;;16.33;9.13;;;10.10;99.90;;;;;;5071515;28;20536;-38
2024/03/12 10:16:49;;;;;;;13.90;7.97;;;10.00;99.90;;;;;;5071647;28;20025;-37
2024/03/12 10:19:15;;;;;;;17.17;8.67;;;10.00;99.90;;;;;;5071932;28;20627;-37
2024/03/12 10:21:41;;;;;;;22.73;9.50;;;10.00;99.90;;;;;;5070236;28;20028;-42
2024/03/12 10:24:13;;;;;;;23.15;9.43;;;9.90;99.90;;;;;;5071554;28;20515;-55
2024/03/12 10:26:39;;;;;;;24.60;9.20;;;10.00;99.90;;;;;;5071444;28;20107;-52
2024/03/12 10:29:10;;;;;;;21.08;9.20;;;10.00;99.90;;;;;;5070850;28;20035;-50
2024/03/12 10:31:39;;;;;;;18.60;10.55;;;10.00;99.90;;;;;;5074751;28;20032;-49
2024/03/12 10:34:10;;;;;;;20.35;9.60;;;10.00;99.90;;;;;;5074983;28;20493;-50
2024/03/12 10:36:37;;;;;;;24.42;10.00;;;10.00;99.90;;;;;;5073708;28;20044;-50
2024/03/12 10:39:12;;;;;;;26.10;10.83;;;10.10;99.90;;;;;;5074954;28;20481;-56
2024/03/12 10:41:39;;;;;;;22.38;9.57;;;10.10;99.90;;;;;;5074990;28;20282;-51
2024/03/12 10:44:10;;;;;;;26.38;10.52;;;10.20;99.90;;;;;;5074871;28;20550;-56
2024/03/12 10:46:40;;;;;;;26.30;11.00;;;10.20;99.90;;;;;;5073439;28;20064;-48
2024/03/12 10:49:12;;;;;;;22.08;10.68;;;10.20;99.90;;;;;;5074728;28;20044;-50
2024/03/12 10:51:43;;;;;;;21.73;9.85;;;10.30;99.90;;;;;;5073303;28;20090;-51
2024/03/12 10:54:14;;;;;;;25.45;11.07;;;10.30;99.90;;;;;;5074742;28;20448;-57
2024/03/12 10:56:45;;;;;;;22.40;11.00;;;10.40;99.90;;;;;;5074734;28;20114;-71
2024/03/12 10:59:12;;;;;;;27.90;12.40;;;10.50;99.90;;;;;;5074701;28;20032;-69
2024/03/12 11:01:41;;;;;;;35.40;12.48;;;10.50;99.90;;;;;;5074728;28;20521;-54
2024/03/12 11:04:09;;;;;;;23.08;10.85;;;10.70;99.90;;;;;;5074355;28;20511;-50
2024/03/12 11:06:39;;;;;;;33.50;13.00;;;10.80;99.90;;;;;;5074511;28;20033;-53
2024/03/12 11:09:06;;;;;;;34.45;13.00;;;11.00;99.90;;;;;;5074235;28;20112;-52
2024/03/12 11:11:36;;;;;;;27.67;11.23;;;11.30;99.90;;;;;;5074426;28;20030;-52
2024/03/12 11:14:03;;;;;;;33.08;12.15;;;11.40;99.90;;;;;;5074442;28;20144;-53
2024/03/12 11:16:36;;;;;;;24.63;10.80;;;11.40;99.90;;;;;;5074332;28;20040;-51
2024/03/12 11:19:22;;;;;;;23.67;10.13;;;11.60;99.90;;;;;;5073546;28;20575;-53
2024/03/12 11:21:49;;;;;;;21.48;10.82;;;11.60;99.90;;;;;;5074159;28;20032;-51
2024/03/12 11:24:44;;;;;;;36.67;12.50;;;11.70;99.90;;;;;;5061577;28;20440;-53
2024/03/12 11:27:26;;;;;;;29.92;11.75;;;11.60;99.90;;;;;;5054104;28;20025;-53
2024/03/12 11:30:04;;;;;;;26.58;10.88;;;11.50;99.90;;;;;;5053994;28;20033;-53
2024/03/12 11:32:33;;;;;;;27.50;11.27;;;11.50;99.90;;;;;;5052649;28;20481;-52
2024/03/12 11:35:09;;;;;;;34.20;12.88;;;11.70;99.90;;;;;;5064625;28;20499;-54
2024/03/12 11:37:37;;;;;;;30.42;11.75;;;12.00;99.90;;;;;;5073733;28;20040;-54
2024/03/12 11:40:39;;;;;;;20.60;9.80;;;12.20;99.90;;;;;;5053474;28;20029;-52
2024/03/12 11:43:12;;;;;;;27.98;11.82;;;12.20;99.90;;;;;;5031999;28;20515;-52
2024/03/12 11:45:48;;;;;;;33.60;12.68;;;12.20;99.90;;;;;;5053734;28;20521;-54
2024/03/12 11:48:21;;;;;;;28.50;11.65;;;12.20;99.90;;;;;;5053665;28;20032;-54
2024/03/12 11:50:52;;;;;;;30.58;11.27;;;12.30;99.90;;;;;;5054074;28;20408;-53
2024/03/12 11:53:28;;;;;;;26.15;11.05;;;12.20;99.90;;;;;;5053745;28;20056;-52
2024/03/12 11:56:05;;;;;;;25.88;11.88;;;12.30;99.90;;;;;;5065343;28;20090;-51
2024/03/12 11:58:31;;;;;;;28.00;11.63;;;12.40;99.90;;;;;;5073652;28;20028;-54
2024/03/12 12:01:01;;;;;;;33.63;13.73;;;12.70;99.90;;;;;;5072177;28;20068;-52
2024/03/12 12:03:28;;;;;;;33.33;12.40;;;13.00;99.90;;;;;;5073518;28;20028;-54
2024/03/12 12:05:54;;;;;;;21.50;11.07;;;13.10;99.90;;;;;;5073435;28;20107;-54
2024/03/12 12:08:21;;;;;;;27.15;12.55;;;13.00;99.90;;;;;;5073232;28;20032;-54
2024/03/12 12:11:00;;;;;;;24.13;11.75;;;13.10;99.90;;;;;;5073071;28;20080;-54
2024/03/12 12:13:26;;;;;;;26.77;11.65;;;13.20;99.90;;;;;;5071891;28;20385;-55
2024/03/12 12:16:04;;;;;;;24.88;11.18;;;13.40;99.90;;;;;;5073261;28;20061;-56
2024/03/12 12:18:35;;;;;;;34.28;11.95;;;13.40;99.90;;;;;;5073848;28;20025;-55
2024/03/12 12:21:03;;;;;;;31.17;12.10;;;13.40;99.90;;;;;;5072494;28;20111;-55
2024/03/12 12:23:29;;;;;;;26.30;10.70;;;13.20;99.90;;;;;;5072801;28;20024;-54
2024/03/12 12:25:56;;;;;;;31.60;12.52;;;13.00;99.90;;;;;;5071261;28;20468;-55
2024/03/12 12:28:24;;;;;;;25.10;10.90;;;12.70;99.90;;;;;;5071990;28;20039;-55
2024/03/12 12:31:00;;;;;;;27.83;12.48;;;12.50;99.90;;;;;;5070886;28;20473;-64
2024/03/12 12:33:28;;;;;;;23.98;11.65;;;12.50;99.90;;;;;;5071326;28;20440;-55
2024/03/12 12:35:55;;;;;;;24.20;10.80;;;12.60;99.90;;;;;;5072807;28;20027;-55
2024/03/12 12:38:23;;;;;;;28.75;11.27;;;12.80;99.90;;;;;;5072858;28;20500;-58
2024/03/12 12:40:49;;;;;;;30.50;12.85;;;12.90;99.90;;;;;;5071408;28;20541;-55
2024/03/12 12:43:17;;;;;;;29.40;12.90;;;12.80;99.90;;;;;;5072574;28;20020;-55
2024/03/12 12:45:47;;;;;;;32.50;13.00;;;12.80;99.90;;;;;;5072526;28;20534;-53
2024/03/12 12:48:18;;;;;;;27.20;11.73;;;13.00;99.90;;;;;;5072659;28;20078;-56